sensor_id;sensor_type;location;lat;lon;timestamp;P1;durP1;ratioP1;P2;durP2;ratioP2
73454;SDS011;61690;51.824;6.306;2023-02-18T00:01:59;4.20;;;1.20;;
73454;SDS011;61690;51.824;6.306;2023-02-18T00:04:24;3.80;;;1.30;;
73454;SDS011;61690;51.824;6.306;2023-02-18T00:06:49;3.73;;;1.20;;
73454;SDS011;61690;51.824;6.306;2023-02-18T00:09:14;3.67;;;1.27;;
73454;SDS011;61690;51.824;6.306;2023-02-18T00:11:40;3.97;;;1.40;;
73454;SDS011;61690;51.824;6.306;2023-02-18T00:14:07;3.90;;;1.43;;
73454;SDS011;61690;51.824;6.306;2023-02-18T00:16:35;3.60;;;1.20;;
73454;SDS011;61690;51.824;6.306;2023-02-18T00:19:01;4.50;;;1.40;;
73454;SDS011;61690;51.824;6.306;2023-02-18T00:21:29;3.97;;;1.25;;
73454;SDS011;61690;51.824;6.306;2023-02-18T00:23:56;4.27;;;1.50;;
73454;SDS011;61690;51.824;6.306;2023-02-18T00:26:21;3.75;;;1.15;;
73454;SDS011;61690;51.824;6.306;2023-02-18T00:28:46;3.50;;;1.10;;
73454;SDS011;61690;51.824;6.306;2023-02-18T00:31:14;3.93;;;1.33;;
73454;SDS011;61690;51.824;6.306;2023-02-18T00:33:41;4.30;;;1.38;;
73454;SDS011;61690;51.824;6.306;2023-02-18T00:36:08;4.15;;;1.20;;
73454;SDS011;61690;51.824;6.306;2023-02-18T00:38:35;3.92;;;1.40;;
73454;SDS011;61690;51.824;6.306;2023-02-18T00:41:01;3.83;;;1.33;;
73454;SDS011;61690;51.824;6.306;2023-02-18T00:43:27;4.05;;;1.40;;
73454;SDS011;61690;51.824;6.306;2023-02-18T00:45:52;3.73;;;1.00;;
73454;SDS011;61690;51.824;6.306;2023-02-18T00:48:18;3.85;;;1.65;;
73454;SDS011;61690;51.824;6.306;2023-02-18T00:50:44;3.90;;;1.07;;
73454;SDS011;61690;51.824;6.306;2023-02-18T00:53:09;3.97;;;1.20;;
73454;SDS011;61690;51.824;6.306;2023-02-18T00:55:52;4.07;;;1.50;;
73454;SDS011;61690;51.824;6.306;2023-02-18T00:58:18;4.13;;;1.60;;
73454;SDS011;61690;51.824;6.306;2023-02-18T01:00:43;3.73;;;1.17;;
73454;SDS011;61690;51.824;6.306;2023-02-18T01:03:09;3.40;;;1.00;;
73454;SDS011;61690;51.824;6.306;2023-02-18T01:05:35;3.80;;;1.50;;
73454;SDS011;61690;51.824;6.306;2023-02-18T01:08:02;3.70;;;1.40;;
73454;SDS011;61690;51.824;6.306;2023-02-18T01:10:27;4.93;;;1.40;;
73454;SDS011;61690;51.824;6.306;2023-02-18T01:12:53;3.83;;;1.10;;
73454;SDS011;61690;51.824;6.306;2023-02-18T01:15:18;3.70;;;1.53;;
73454;SDS011;61690;51.824;6.306;2023-02-18T01:17:44;4.43;;;1.70;;
73454;SDS011;61690;51.824;6.306;2023-02-18T01:20:10;3.90;;;1.20;;
73454;SDS011;61690;51.824;6.306;2023-02-18T01:22:36;3.58;;;1.20;;
73454;SDS011;61690;51.824;6.306;2023-02-18T01:25:02;4.17;;;1.50;;
73454;SDS011;61690;51.824;6.306;2023-02-18T01:27:27;4.35;;;1.25;;
73454;SDS011;61690;51.824;6.306;2023-02-18T01:29:53;3.70;;;1.30;;
73454;SDS011;61690;51.824;6.306;2023-02-18T01:32:19;3.75;;;1.30;;
73454;SDS011;61690;51.824;6.306;2023-02-18T01:34:44;4.60;;;1.20;;
73454;SDS011;61690;51.824;6.306;2023-02-18T01:37:10;3.70;;;1.40;;
73454;SDS011;61690;51.824;6.306;2023-02-18T01:39:35;4.00;;;1.30;;
73454;SDS011;61690;51.824;6.306;2023-02-18T01:42:00;4.37;;;1.43;;
73454;SDS011;61690;51.824;6.306;2023-02-18T01:44:27;4.73;;;1.40;;
73454;SDS011;61690;51.824;6.306;2023-02-18T01:46:52;3.60;;;1.30;;
73454;SDS011;61690;51.824;6.306;2023-02-18T01:49:20;3.70;;;1.20;;
73454;SDS011;61690;51.824;6.306;2023-02-18T01:51:51;3.80;;;1.55;;
73454;SDS011;61690;51.824;6.306;2023-02-18T01:54:27;3.88;;;1.42;;
73454;SDS011;61690;51.824;6.306;2023-02-18T01:57:11;4.10;;;1.20;;
73454;SDS011;61690;51.824;6.306;2023-02-18T01:59:41;4.25;;;1.60;;
73454;SDS011;61690;51.824;6.306;2023-02-18T02:02:11;3.85;;;1.40;;
73454;SDS011;61690;51.824;6.306;2023-02-18T02:04:39;3.53;;;1.30;;
73454;SDS011;61690;51.824;6.306;2023-02-18T02:07:06;3.67;;;1.30;;
73454;SDS011;61690;51.824;6.306;2023-02-18T02:09:32;3.97;;;1.50;;
73454;SDS011;61690;51.824;6.306;2023-02-18T02:15:05;3.90;;;1.70;;
73454;SDS011;61690;51.824;6.306;2023-02-18T02:20:27;3.45;;;1.20;;
73454;SDS011;61690;51.824;6.306;2023-02-18T02:26:34;4.07;;;1.50;;
73454;SDS011;61690;51.824;6.306;2023-02-18T02:29:29;4.35;;;1.40;;
73454;SDS011;61690;51.824;6.306;2023-02-18T02:35:01;4.00;;;1.30;;
73454;SDS011;61690;51.824;6.306;2023-02-18T02:37:44;3.93;;;1.37;;
73454;SDS011;61690;51.824;6.306;2023-02-18T02:40:28;4.43;;;1.48;;
73454;SDS011;61690;51.824;6.306;2023-02-18T02:46:01;3.78;;;1.60;;
73454;SDS011;61690;51.824;6.306;2023-02-18T02:48:37;4.00;;;1.67;;
73454;SDS011;61690;51.824;6.306;2023-02-18T02:53:48;3.42;;;1.15;;
73454;SDS011;61690;51.824;6.306;2023-02-18T02:56:14;3.77;;;1.33;;
73454;SDS011;61690;51.824;6.306;2023-02-18T02:58:44;4.18;;;1.52;;
73454;SDS011;61690;51.824;6.306;2023-02-18T03:11:28;4.68;;;1.35;;
73454;SDS011;61690;51.824;6.306;2023-02-18T03:14:24;4.00;;;1.60;;
73454;SDS011;61690;51.824;6.306;2023-02-18T03:17:04;3.80;;;1.27;;
73454;SDS011;61690;51.824;6.306;2023-02-18T03:19:41;3.90;;;1.50;;
73454;SDS011;61690;51.824;6.306;2023-02-18T03:22:16;3.93;;;1.50;;
73454;SDS011;61690;51.824;6.306;2023-02-18T03:24:46;3.80;;;1.30;;
73454;SDS011;61690;51.824;6.306;2023-02-18T03:27:15;4.32;;;1.40;;
73454;SDS011;61690;51.824;6.306;2023-02-18T03:29:42;3.90;;;1.50;;
73454;SDS011;61690;51.824;6.306;2023-02-18T03:32:11;3.97;;;1.60;;
73454;SDS011;61690;51.824;6.306;2023-02-18T03:34:41;4.33;;;1.40;;
73454;SDS011;61690;51.824;6.306;2023-02-18T03:37:10;3.97;;;1.65;;
73454;SDS011;61690;51.824;6.306;2023-02-18T03:39:38;4.25;;;1.58;;
73454;SDS011;61690;51.824;6.306;2023-02-18T03:42:06;4.00;;;1.60;;
73454;SDS011;61690;51.824;6.306;2023-02-18T03:44:32;6.13;;;1.30;;
73454;SDS011;61690;51.824;6.306;2023-02-18T03:46:57;4.07;;;1.67;;
73454;SDS011;61690;51.824;6.306;2023-02-18T03:49:22;4.10;;;1.47;;
73454;SDS011;61690;51.824;6.306;2023-02-18T03:51:48;3.97;;;1.60;;
73454;SDS011;61690;51.824;6.306;2023-02-18T03:54:13;4.00;;;1.90;;
73454;SDS011;61690;51.824;6.306;2023-02-18T03:56:39;4.20;;;1.67;;
73454;SDS011;61690;51.824;6.306;2023-02-18T03:59:05;4.10;;;1.35;;
73454;SDS011;61690;51.824;6.306;2023-02-18T04:01:30;4.00;;;1.57;;
73454;SDS011;61690;51.824;6.306;2023-02-18T04:03:55;3.70;;;1.40;;
73454;SDS011;61690;51.824;6.306;2023-02-18T04:06:21;3.97;;;1.50;;
73454;SDS011;61690;51.824;6.306;2023-02-18T04:08:47;3.77;;;1.30;;
73454;SDS011;61690;51.824;6.306;2023-02-18T04:11:12;3.58;;;1.33;;
73454;SDS011;61690;51.824;6.306;2023-02-18T04:13:38;4.67;;;1.73;;
73454;SDS011;61690;51.824;6.306;2023-02-18T04:16:03;3.97;;;1.60;;
73454;SDS011;61690;51.824;6.306;2023-02-18T04:18:29;4.10;;;1.65;;
73454;SDS011;61690;51.824;6.306;2023-02-18T04:20:57;3.90;;;1.33;;
73454;SDS011;61690;51.824;6.306;2023-02-18T04:23:22;4.00;;;1.60;;
73454;SDS011;61690;51.824;6.306;2023-02-18T04:25:48;4.10;;;1.80;;
73454;SDS011;61690;51.824;6.306;2023-02-18T04:28:14;4.33;;;1.90;;
73454;SDS011;61690;51.824;6.306;2023-02-18T04:30:41;4.15;;;1.80;;
73454;SDS011;61690;51.824;6.306;2023-02-18T04:33:07;4.60;;;1.90;;
73454;SDS011;61690;51.824;6.306;2023-02-18T04:35:33;4.55;;;2.00;;
73454;SDS011;61690;51.824;6.306;2023-02-18T04:37:58;4.13;;;1.80;;
73454;SDS011;61690;51.824;6.306;2023-02-18T04:40:24;4.03;;;1.57;;
73454;SDS011;61690;51.824;6.306;2023-02-18T04:42:54;4.57;;;1.95;;
73454;SDS011;61690;51.824;6.306;2023-02-18T04:45:23;4.75;;;1.70;;
73454;SDS011;61690;51.824;6.306;2023-02-18T04:47:50;4.32;;;2.00;;
73454;SDS011;61690;51.824;6.306;2023-02-18T04:50:15;3.80;;;1.60;;
73454;SDS011;61690;51.824;6.306;2023-02-18T04:52:40;4.20;;;1.80;;
73454;SDS011;61690;51.824;6.306;2023-02-18T04:55:06;4.50;;;1.80;;
73454;SDS011;61690;51.824;6.306;2023-02-18T04:57:31;4.20;;;1.73;;
73454;SDS011;61690;51.824;6.306;2023-02-18T04:59:57;4.00;;;1.80;;
73454;SDS011;61690;51.824;6.306;2023-02-18T05:02:22;4.17;;;1.70;;
73454;SDS011;61690;51.824;6.306;2023-02-18T05:04:47;4.03;;;1.80;;
73454;SDS011;61690;51.824;6.306;2023-02-18T05:07:13;4.40;;;2.13;;
73454;SDS011;61690;51.824;6.306;2023-02-18T05:09:38;5.00;;;2.20;;
73454;SDS011;61690;51.824;6.306;2023-02-18T05:12:03;4.83;;;1.90;;
73454;SDS011;61690;51.824;6.306;2023-02-18T05:14:29;4.70;;;1.80;;
73454;SDS011;61690;51.824;6.306;2023-02-18T05:16:55;4.20;;;1.90;;
73454;SDS011;61690;51.824;6.306;2023-02-18T05:19:20;4.23;;;1.77;;
73454;SDS011;61690;51.824;6.306;2023-02-18T05:21:45;4.30;;;1.80;;
73454;SDS011;61690;51.824;6.306;2023-02-18T05:24:11;5.20;;;2.00;;
73454;SDS011;61690;51.824;6.306;2023-02-18T05:26:36;4.43;;;2.03;;
73454;SDS011;61690;51.824;6.306;2023-02-18T05:29:02;4.60;;;2.30;;
73454;SDS011;61690;51.824;6.306;2023-02-18T05:31:27;5.03;;;2.30;;
73454;SDS011;61690;51.824;6.306;2023-02-18T05:33:53;4.00;;;1.90;;
73454;SDS011;61690;51.824;6.306;2023-02-18T05:36:18;4.70;;;2.00;;
73454;SDS011;61690;51.824;6.306;2023-02-18T05:38:43;4.40;;;1.70;;
73454;SDS011;61690;51.824;6.306;2023-02-18T05:41:08;5.07;;;2.10;;
73454;SDS011;61690;51.824;6.306;2023-02-18T05:43:34;4.10;;;1.83;;
73454;SDS011;61690;51.824;6.306;2023-02-18T05:46:19;4.75;;;2.20;;
73454;SDS011;61690;51.824;6.306;2023-02-18T05:48:44;4.43;;;1.93;;
73454;SDS011;61690;51.824;6.306;2023-02-18T05:51:10;7.83;;;2.20;;
73454;SDS011;61690;51.824;6.306;2023-02-18T05:53:35;4.23;;;2.10;;
73454;SDS011;61690;51.824;6.306;2023-02-18T05:56:00;4.40;;;2.00;;
73454;SDS011;61690;51.824;6.306;2023-02-18T05:58:25;4.43;;;2.00;;
73454;SDS011;61690;51.824;6.306;2023-02-18T06:00:51;4.33;;;1.90;;
73454;SDS011;61690;51.824;6.306;2023-02-18T06:03:16;4.07;;;1.80;;
73454;SDS011;61690;51.824;6.306;2023-02-18T06:05:41;4.20;;;2.00;;
73454;SDS011;61690;51.824;6.306;2023-02-18T06:08:07;4.77;;;1.80;;
73454;SDS011;61690;51.824;6.306;2023-02-18T06:10:32;4.40;;;2.20;;
73454;SDS011;61690;51.824;6.306;2023-02-18T06:12:57;4.43;;;2.27;;
73454;SDS011;61690;51.824;6.306;2023-02-18T06:15:24;4.32;;;1.95;;
73454;SDS011;61690;51.824;6.306;2023-02-18T06:17:49;4.20;;;2.10;;
73454;SDS011;61690;51.824;6.306;2023-02-18T06:20:14;4.25;;;1.80;;
73454;SDS011;61690;51.824;6.306;2023-02-18T06:22:40;3.70;;;1.60;;
73454;SDS011;61690;51.824;6.306;2023-02-18T06:25:05;4.27;;;2.17;;
73454;SDS011;61690;51.824;6.306;2023-02-18T06:27:30;4.73;;;2.30;;
73454;SDS011;61690;51.824;6.306;2023-02-18T06:29:56;4.20;;;1.70;;
73454;SDS011;61690;51.824;6.306;2023-02-18T06:32:21;4.20;;;1.80;;
73454;SDS011;61690;51.824;6.306;2023-02-18T06:34:46;4.00;;;1.95;;
73454;SDS011;61690;51.824;6.306;2023-02-18T06:37:12;4.83;;;2.27;;
73454;SDS011;61690;51.824;6.306;2023-02-18T06:39:37;4.13;;;1.73;;
73454;SDS011;61690;51.824;6.306;2023-02-18T06:42:03;4.00;;;2.10;;
73454;SDS011;61690;51.824;6.306;2023-02-18T06:44:29;4.47;;;2.37;;
73454;SDS011;61690;51.824;6.306;2023-02-18T06:46:54;4.20;;;2.10;;
73454;SDS011;61690;51.824;6.306;2023-02-18T06:49:19;4.93;;;2.50;;
73454;SDS011;61690;51.824;6.306;2023-02-18T06:51:45;4.30;;;2.10;;
73454;SDS011;61690;51.824;6.306;2023-02-18T06:54:10;5.70;;;2.17;;
73454;SDS011;61690;51.824;6.306;2023-02-18T06:56:35;4.40;;;2.00;;
73454;SDS011;61690;51.824;6.306;2023-02-18T06:59:00;4.60;;;2.10;;
73454;SDS011;61690;51.824;6.306;2023-02-18T07:01:26;4.30;;;2.23;;
73454;SDS011;61690;51.824;6.306;2023-02-18T07:03:51;4.40;;;2.30;;
73454;SDS011;61690;51.824;6.306;2023-02-18T07:06:16;4.07;;;1.90;;
73454;SDS011;61690;51.824;6.306;2023-02-18T07:08:42;4.10;;;1.90;;
73454;SDS011;61690;51.824;6.306;2023-02-18T07:11:07;4.03;;;1.90;;
73454;SDS011;61690;51.824;6.306;2023-02-18T07:13:32;4.10;;;2.20;;
73454;SDS011;61690;51.824;6.306;2023-02-18T07:15:58;4.10;;;2.20;;
73454;SDS011;61690;51.824;6.306;2023-02-18T07:18:23;4.57;;;2.00;;
73454;SDS011;61690;51.824;6.306;2023-02-18T07:20:48;4.25;;;2.00;;
73454;SDS011;61690;51.824;6.306;2023-02-18T07:23:14;4.43;;;2.40;;
73454;SDS011;61690;51.824;6.306;2023-02-18T07:25:39;4.33;;;2.30;;
73454;SDS011;61690;51.824;6.306;2023-02-18T07:28:05;4.40;;;2.13;;
73454;SDS011;61690;51.824;6.306;2023-02-18T07:30:30;4.20;;;1.83;;
73454;SDS011;61690;51.824;6.306;2023-02-18T07:32:55;4.13;;;1.90;;
73454;SDS011;61690;51.824;6.306;2023-02-18T07:35:21;4.20;;;1.90;;
73454;SDS011;61690;51.824;6.306;2023-02-18T07:37:46;4.13;;;2.30;;
73454;SDS011;61690;51.824;6.306;2023-02-18T07:40:15;4.70;;;2.40;;
73454;SDS011;61690;51.824;6.306;2023-02-18T07:42:42;4.20;;;2.10;;
73454;SDS011;61690;51.824;6.306;2023-02-18T07:45:08;4.57;;;2.33;;
73454;SDS011;61690;51.824;6.306;2023-02-18T07:47:34;4.57;;;2.27;;
73454;SDS011;61690;51.824;6.306;2023-02-18T07:50:00;4.50;;;2.47;;
73454;SDS011;61690;51.824;6.306;2023-02-18T07:52:25;4.20;;;2.30;;
73454;SDS011;61690;51.824;6.306;2023-02-18T07:54:50;4.70;;;2.00;;
73454;SDS011;61690;51.824;6.306;2023-02-18T07:57:16;4.30;;;2.20;;
73454;SDS011;61690;51.824;6.306;2023-02-18T07:59:41;4.43;;;2.17;;
73454;SDS011;61690;51.824;6.306;2023-02-18T08:02:08;4.77;;;2.37;;
73454;SDS011;61690;51.824;6.306;2023-02-18T08:04:41;4.50;;;2.50;;
73454;SDS011;61690;51.824;6.306;2023-02-18T08:07:06;4.23;;;2.17;;
73454;SDS011;61690;51.824;6.306;2023-02-18T08:09:32;4.60;;;2.10;;
73454;SDS011;61690;51.824;6.306;2023-02-18T08:11:57;4.17;;;2.17;;
73454;SDS011;61690;51.824;6.306;2023-02-18T08:14:22;5.10;;;2.40;;
73454;SDS011;61690;51.824;6.306;2023-02-18T08:16:47;4.30;;;2.20;;
73454;SDS011;61690;51.824;6.306;2023-02-18T08:19:13;4.55;;;2.20;;
73454;SDS011;61690;51.824;6.306;2023-02-18T08:21:38;4.90;;;2.50;;
73454;SDS011;61690;51.824;6.306;2023-02-18T08:24:03;4.43;;;2.50;;
73454;SDS011;61690;51.824;6.306;2023-02-18T08:26:29;4.23;;;2.00;;
73454;SDS011;61690;51.824;6.306;2023-02-18T08:28:54;4.27;;;2.30;;
73454;SDS011;61690;51.824;6.306;2023-02-18T08:31:21;4.50;;;2.20;;
73454;SDS011;61690;51.824;6.306;2023-02-18T08:33:51;4.25;;;2.33;;
73454;SDS011;61690;51.824;6.306;2023-02-18T08:36:19;4.53;;;2.72;;
73454;SDS011;61690;51.824;6.306;2023-02-18T08:38:45;4.45;;;2.50;;
73454;SDS011;61690;51.824;6.306;2023-02-18T08:41:10;4.57;;;2.50;;
73454;SDS011;61690;51.824;6.306;2023-02-18T08:43:35;4.47;;;2.40;;
73454;SDS011;61690;51.824;6.306;2023-02-18T08:46:01;4.20;;;2.10;;
73454;SDS011;61690;51.824;6.306;2023-02-18T08:48:27;4.47;;;2.45;;
73454;SDS011;61690;51.824;6.306;2023-02-18T08:50:53;4.37;;;2.47;;
73454;SDS011;61690;51.824;6.306;2023-02-18T08:53:18;4.43;;;2.33;;
73454;SDS011;61690;51.824;6.306;2023-02-18T08:55:44;4.95;;;2.60;;
73454;SDS011;61690;51.824;6.306;2023-02-18T08:58:10;6.23;;;2.77;;
73454;SDS011;61690;51.824;6.306;2023-02-18T09:00:36;5.75;;;2.50;;
73454;SDS011;61690;51.824;6.306;2023-02-18T09:03:03;5.35;;;2.53;;
73454;SDS011;61690;51.824;6.306;2023-02-18T09:05:28;5.40;;;2.23;;
73454;SDS011;61690;51.824;6.306;2023-02-18T09:07:54;4.40;;;2.15;;
73454;SDS011;61690;51.824;6.306;2023-02-18T09:10:19;5.03;;;2.30;;
73454;SDS011;61690;51.824;6.306;2023-02-18T09:12:45;4.33;;;2.20;;
73454;SDS011;61690;51.824;6.306;2023-02-18T09:15:10;5.23;;;2.70;;
73454;SDS011;61690;51.824;6.306;2023-02-18T09:17:35;4.23;;;2.00;;
73454;SDS011;61690;51.824;6.306;2023-02-18T09:20:01;5.37;;;2.50;;
73454;SDS011;61690;51.824;6.306;2023-02-18T09:22:27;4.43;;;2.00;;
73454;SDS011;61690;51.824;6.306;2023-02-18T09:24:53;5.40;;;2.17;;
73454;SDS011;61690;51.824;6.306;2023-02-18T09:27:18;4.67;;;2.00;;
73454;SDS011;61690;51.824;6.306;2023-02-18T09:29:43;5.90;;;2.47;;
73454;SDS011;61690;51.824;6.306;2023-02-18T09:32:09;4.63;;;2.00;;
73454;SDS011;61690;51.824;6.306;2023-02-18T09:34:36;4.40;;;2.17;;
73454;SDS011;61690;51.824;6.306;2023-02-18T09:37:01;5.27;;;2.17;;
73454;SDS011;61690;51.824;6.306;2023-02-18T09:39:27;5.22;;;2.25;;
73454;SDS011;61690;51.824;6.306;2023-02-18T09:42:00;4.60;;;2.50;;
73454;SDS011;61690;51.824;6.306;2023-02-18T09:44:33;5.32;;;2.20;;
73454;SDS011;61690;51.824;6.306;2023-02-18T09:47:14;5.25;;;2.17;;
73454;SDS011;61690;51.824;6.306;2023-02-18T09:49:45;4.37;;;2.13;;
73454;SDS011;61690;51.824;6.306;2023-02-18T09:52:15;4.78;;;2.20;;
73454;SDS011;61690;51.824;6.306;2023-02-18T09:54:53;5.45;;;2.38;;
73454;SDS011;61690;51.824;6.306;2023-02-18T09:57:33;4.63;;;2.53;;
73454;SDS011;61690;51.824;6.306;2023-02-18T10:00:09;4.53;;;2.30;;
73454;SDS011;61690;51.824;6.306;2023-02-18T10:02:39;4.40;;;2.20;;
73454;SDS011;61690;51.824;6.306;2023-02-18T10:05:10;4.45;;;2.33;;
73454;SDS011;61690;51.824;6.306;2023-02-18T10:07:39;4.53;;;2.35;;
73454;SDS011;61690;51.824;6.306;2023-02-18T10:13:09;5.35;;;2.75;;
73454;SDS011;61690;51.824;6.306;2023-02-18T10:15:37;4.37;;;2.30;;
73454;SDS011;61690;51.824;6.306;2023-02-18T10:18:04;4.80;;;2.80;;
73454;SDS011;61690;51.824;6.306;2023-02-18T10:20:38;4.90;;;2.80;;
73454;SDS011;61690;51.824;6.306;2023-02-18T10:23:04;4.70;;;2.70;;
73454;SDS011;61690;51.824;6.306;2023-02-18T10:25:30;6.72;;;2.60;;
73454;SDS011;61690;51.824;6.306;2023-02-18T10:27:56;4.88;;;2.28;;
73454;SDS011;61690;51.824;6.306;2023-02-18T10:30:26;5.78;;;2.78;;
73454;SDS011;61690;51.824;6.306;2023-02-18T10:35:50;4.82;;;2.17;;
73454;SDS011;61690;51.824;6.306;2023-02-18T10:38:36;4.72;;;2.53;;
73454;SDS011;61690;51.824;6.306;2023-02-18T10:43:58;5.50;;;2.55;;
73454;SDS011;61690;51.824;6.306;2023-02-18T10:46:28;5.70;;;2.90;;
73454;SDS011;61690;51.824;6.306;2023-02-18T10:51:46;5.07;;;2.42;;
73454;SDS011;61690;51.824;6.306;2023-02-18T10:54:16;5.57;;;2.40;;
73454;SDS011;61690;51.824;6.306;2023-02-18T10:56:48;4.88;;;2.50;;
73454;SDS011;61690;51.824;6.306;2023-02-18T11:01:46;4.68;;;2.30;;
73454;SDS011;61690;51.824;6.306;2023-02-18T11:04:19;5.28;;;2.80;;
73454;SDS011;61690;51.824;6.306;2023-02-18T11:06:48;4.88;;;2.55;;
73454;SDS011;61690;51.824;6.306;2023-02-18T11:11:57;5.57;;;2.80;;
73454;SDS011;61690;51.824;6.306;2023-02-18T11:14:36;4.90;;;2.45;;
73454;SDS011;61690;51.824;6.306;2023-02-18T11:19:52;4.60;;;2.40;;
73454;SDS011;61690;51.824;6.306;2023-02-18T11:22:22;4.47;;;2.63;;
73454;SDS011;61690;51.824;6.306;2023-02-18T11:24:59;4.17;;;2.30;;
73454;SDS011;61690;51.824;6.306;2023-02-18T11:30:03;5.38;;;2.70;;
73454;SDS011;61690;51.824;6.306;2023-02-18T11:32:33;4.22;;;2.30;;
73454;SDS011;61690;51.824;6.306;2023-02-18T11:35:00;4.55;;;2.47;;
73454;SDS011;61690;51.824;6.306;2023-02-18T11:37:27;4.97;;;2.40;;
73454;SDS011;61690;51.824;6.306;2023-02-18T11:39:53;4.57;;;2.50;;
73454;SDS011;61690;51.824;6.306;2023-02-18T11:42:21;4.40;;;2.50;;
73454;SDS011;61690;51.824;6.306;2023-02-18T11:44:52;4.70;;;2.40;;
73454;SDS011;61690;51.824;6.306;2023-02-18T11:47:27;4.50;;;2.40;;
73454;SDS011;61690;51.824;6.306;2023-02-18T11:52:43;5.78;;;2.63;;
73454;SDS011;61690;51.824;6.306;2023-02-18T11:57:37;4.70;;;2.70;;
73454;SDS011;61690;51.824;6.306;2023-02-18T12:00:05;4.40;;;2.30;;
73454;SDS011;61690;51.824;6.306;2023-02-18T12:02:47;4.60;;;2.42;;
73454;SDS011;61690;51.824;6.306;2023-02-18T12:05:20;4.55;;;2.58;;
73454;SDS011;61690;51.824;6.306;2023-02-18T12:07:49;4.90;;;2.50;;
73454;SDS011;61690;51.824;6.306;2023-02-18T12:21:25;4.43;;;2.30;;
73454;SDS011;61690;51.824;6.306;2023-02-18T12:32:28;4.47;;;2.42;;
73454;SDS011;61690;51.824;6.306;2023-02-18T12:35:14;5.27;;;2.60;;
73454;SDS011;61690;51.824;6.306;2023-02-18T12:37:56;5.05;;;2.22;;
73454;SDS011;61690;51.824;6.306;2023-02-18T12:43:36;4.72;;;2.40;;
73454;SDS011;61690;51.824;6.306;2023-02-18T12:46:19;4.90;;;2.10;;
73454;SDS011;61690;51.824;6.306;2023-02-18T12:51:32;5.10;;;2.40;;
73454;SDS011;61690;51.824;6.306;2023-02-18T12:54:06;5.70;;;2.50;;
73454;SDS011;61690;51.824;6.306;2023-02-18T12:59:49;4.95;;;2.40;;
73454;SDS011;61690;51.824;6.306;2023-02-18T13:16:00;5.00;;;2.20;;
73454;SDS011;61690;51.824;6.306;2023-02-18T13:18:33;4.93;;;2.38;;
73454;SDS011;61690;51.824;6.306;2023-02-18T13:21:05;4.95;;;2.40;;
73454;SDS011;61690;51.824;6.306;2023-02-18T13:23:34;4.97;;;2.20;;
73454;SDS011;61690;51.824;6.306;2023-02-18T13:26:03;5.38;;;2.50;;
73454;SDS011;61690;51.824;6.306;2023-02-18T13:28:51;4.80;;;1.90;;
73454;SDS011;61690;51.824;6.306;2023-02-18T13:34:30;4.25;;;2.10;;
73454;SDS011;61690;51.824;6.306;2023-02-18T13:39:32;5.07;;;2.50;;
73454;SDS011;61690;51.824;6.306;2023-02-18T13:52:47;5.80;;;2.40;;
73454;SDS011;61690;51.824;6.306;2023-02-18T13:55:20;4.87;;;2.40;;
73454;SDS011;61690;51.824;6.306;2023-02-18T13:57:51;4.50;;;2.10;;
73454;SDS011;61690;51.824;6.306;2023-02-18T14:00:23;6.38;;;2.65;;
73454;SDS011;61690;51.824;6.306;2023-02-18T14:02:59;5.28;;;2.45;;
73454;SDS011;61690;51.824;6.306;2023-02-18T14:05:38;8.43;;;2.58;;
73454;SDS011;61690;51.824;6.306;2023-02-18T14:08:12;5.30;;;2.00;;
73454;SDS011;61690;51.824;6.306;2023-02-18T14:10:39;5.63;;;2.35;;
73454;SDS011;61690;51.824;6.306;2023-02-18T14:13:24;4.72;;;2.00;;
73454;SDS011;61690;51.824;6.306;2023-02-18T14:16:11;5.17;;;2.13;;
73454;SDS011;61690;51.824;6.306;2023-02-18T14:26:19;5.20;;;2.30;;
73454;SDS011;61690;51.824;6.306;2023-02-18T14:31:35;4.93;;;2.03;;
73454;SDS011;61690;51.824;6.306;2023-02-18T14:39:31;7.65;;;1.85;;
73454;SDS011;61690;51.824;6.306;2023-02-18T14:42:09;4.68;;;2.20;;
73454;SDS011;61690;51.824;6.306;2023-02-18T14:50:11;6.20;;;1.83;;
73454;SDS011;61690;51.824;6.306;2023-02-18T14:55:18;5.40;;;1.88;;
73454;SDS011;61690;51.824;6.306;2023-02-18T14:57:51;4.70;;;1.77;;
73454;SDS011;61690;51.824;6.306;2023-02-18T15:00:21;5.60;;;2.05;;
73454;SDS011;61690;51.824;6.306;2023-02-18T15:02:55;4.40;;;2.00;;
73454;SDS011;61690;51.824;6.306;2023-02-18T15:05:24;4.22;;;2.10;;
73454;SDS011;61690;51.824;6.306;2023-02-18T15:08:00;4.93;;;1.83;;
73454;SDS011;61690;51.824;6.306;2023-02-18T15:13:02;6.80;;;2.00;;
73454;SDS011;61690;51.824;6.306;2023-02-18T15:15:29;7.33;;;1.97;;
73454;SDS011;61690;51.824;6.306;2023-02-18T15:17:58;4.80;;;2.17;;
73454;SDS011;61690;51.824;6.306;2023-02-18T15:20:24;5.13;;;1.60;;
73454;SDS011;61690;51.824;6.306;2023-02-18T15:22:52;5.75;;;1.60;;
73454;SDS011;61690;51.824;6.306;2023-02-18T15:25:19;5.32;;;2.08;;
73454;SDS011;61690;51.824;6.306;2023-02-18T15:27:44;4.00;;;1.80;;
73454;SDS011;61690;51.824;6.306;2023-02-18T15:30:18;5.20;;;1.60;;
73454;SDS011;61690;51.824;6.306;2023-02-18T15:32:51;5.80;;;1.77;;
73454;SDS011;61690;51.824;6.306;2023-02-18T15:35:19;4.75;;;1.92;;
73454;SDS011;61690;51.824;6.306;2023-02-18T15:37:50;4.63;;;1.90;;
73454;SDS011;61690;51.824;6.306;2023-02-18T15:40:18;5.78;;;1.88;;
73454;SDS011;61690;51.824;6.306;2023-02-18T15:42:46;5.47;;;1.77;;
73454;SDS011;61690;51.824;6.306;2023-02-18T15:45:16;6.50;;;2.17;;
73454;SDS011;61690;51.824;6.306;2023-02-18T15:48:05;4.80;;;1.70;;
73454;SDS011;61690;51.824;6.306;2023-02-18T15:50:35;4.77;;;1.80;;
73454;SDS011;61690;51.824;6.306;2023-02-18T15:53:17;8.07;;;1.70;;
73454;SDS011;61690;51.824;6.306;2023-02-18T15:55:45;5.25;;;1.88;;
73454;SDS011;61690;51.824;6.306;2023-02-18T15:58:16;5.00;;;1.80;;
73454;SDS011;61690;51.824;6.306;2023-02-18T16:03:17;4.18;;;1.60;;
73454;SDS011;61690;51.824;6.306;2023-02-18T16:05:45;4.97;;;1.90;;
73454;SDS011;61690;51.824;6.306;2023-02-18T16:08:24;10.73;;;2.00;;
73454;SDS011;61690;51.824;6.306;2023-02-18T16:11:02;5.30;;;1.60;;
73454;SDS011;61690;51.824;6.306;2023-02-18T16:13:31;6.65;;;2.00;;
73454;SDS011;61690;51.824;6.306;2023-02-18T16:15:58;4.30;;;1.60;;
73454;SDS011;61690;51.824;6.306;2023-02-18T16:18:37;5.03;;;2.05;;
73454;SDS011;61690;51.824;6.306;2023-02-18T16:23:50;5.65;;;2.20;;
73454;SDS011;61690;51.824;6.306;2023-02-18T16:29:11;5.10;;;1.73;;
73454;SDS011;61690;51.824;6.306;2023-02-18T16:31:36;5.30;;;1.88;;
73454;SDS011;61690;51.824;6.306;2023-02-18T16:34:02;5.17;;;1.80;;
73454;SDS011;61690;51.824;6.306;2023-02-18T16:36:27;4.47;;;1.80;;
73454;SDS011;61690;51.824;6.306;2023-02-18T16:38:52;4.63;;;1.60;;
73454;SDS011;61690;51.824;6.306;2023-02-18T16:41:18;4.63;;;1.60;;
73454;SDS011;61690;51.824;6.306;2023-02-18T16:43:44;6.07;;;1.87;;
73454;SDS011;61690;51.824;6.306;2023-02-18T16:46:18;7.03;;;2.10;;
73454;SDS011;61690;51.824;6.306;2023-02-18T16:48:49;4.75;;;1.60;;
73454;SDS011;61690;51.824;6.306;2023-02-18T16:51:22;5.38;;;1.90;;
73454;SDS011;61690;51.824;6.306;2023-02-18T16:53:53;16.57;;;7.50;;
73454;SDS011;61690;51.824;6.306;2023-02-18T16:56:20;20.67;;;7.13;;
73454;SDS011;61690;51.824;6.306;2023-02-18T16:58:47;12.90;;;6.90;;
73454;SDS011;61690;51.824;6.306;2023-02-18T17:01:18;11.43;;;6.80;;
73454;SDS011;61690;51.824;6.306;2023-02-18T17:03:47;12.63;;;6.70;;
73454;SDS011;61690;51.824;6.306;2023-02-18T17:06:13;10.77;;;6.40;;
73454;SDS011;61690;51.824;6.306;2023-02-18T17:08:38;10.87;;;6.63;;
73454;SDS011;61690;51.824;6.306;2023-02-18T17:11:03;13.20;;;6.77;;
73454;SDS011;61690;51.824;6.306;2023-02-18T17:13:29;11.50;;;6.80;;
73454;SDS011;61690;51.824;6.306;2023-02-18T17:15:56;10.77;;;6.50;;
73454;SDS011;61690;51.824;6.306;2023-02-18T17:18:23;11.82;;;6.32;;
73454;SDS011;61690;51.824;6.306;2023-02-18T17:20:50;13.50;;;6.22;;
73454;SDS011;61690;51.824;6.306;2023-02-18T17:23:17;9.37;;;6.00;;
73454;SDS011;61690;51.824;6.306;2023-02-18T17:25:45;9.25;;;5.95;;